Time;durP1;ratioP1;P1;durP2;ratioP2;P2;SDS_P1;SDS_P2;PMS_P1;PMS_P2;Temp;Humidity;BMP_temperature;BMP_pressure;BME280_temperature;BME280_humidity;BME280_pressure;Samples;Min_cycle;Max_cycle;Signal;HPM_P1;HPM_P2
2022/05/06 00:00:11;;;;;;;28.90;19.47;;;13.10;99.90;;;;;;5068677;28;20633;-54
2022/05/06 00:02:38;;;;;;;28.73;20.63;;;13.10;99.90;;;;;;5070672;28;20207;-54
2022/05/06 00:05:06;;;;;;;30.27;20.47;;;13.00;99.90;;;;;;5067908;28;20236;-53
2022/05/06 00:07:34;;;;;;;30.30;20.63;;;13.10;97.30;;;;;;5055136;28;20226;-54
2022/05/06 00:10:03;;;;;;;29.23;20.90;;;13.10;99.90;;;;;;5075075;28;20193;-54
2022/05/06 00:12:30;;;;;;;32.53;20.43;;;13.10;99.90;;;;;;5062275;28;20801;-54
2022/05/06 00:14:58;;;;;;;32.17;21.30;;;13.00;99.90;;;;;;5060824;28;20289;-53
2022/05/06 00:17:25;;;;;;;32.23;21.83;;;12.90;99.90;;;;;;5070006;28;20205;-53
2022/05/06 00:19:52;;;;;;;42.63;23.30;;;12.70;99.90;;;;;;5065787;28;20199;-53
2022/05/06 00:22:19;;;;;;;41.23;23.47;;;12.60;99.90;;;;;;5069863;28;20220;-53
2022/05/06 00:24:46;;;;;;;36.17;21.47;;;12.50;99.90;;;;;;5069234;28;20208;-53
2022/05/06 00:27:13;;;;;;;41.13;22.63;;;12.40;99.90;;;;;;5070246;28;20215;-53
2022/05/06 00:29:40;;;;;;;37.33;21.83;;;12.40;99.90;;;;;;5064031;28;20281;-53
2022/05/06 00:32:07;;;;;;;35.53;20.10;;;12.40;99.90;;;;;;5067498;28;20243;-53
2022/05/06 00:34:34;;;;;;;34.73;19.40;;;12.50;99.90;;;;;;5066245;28;20272;-53
2022/05/06 00:37:01;;;;;;;36.40;20.47;;;12.40;99.90;;;;;;5070460;28;20215;-54
2022/05/06 00:39:27;;;;;;;32.83;20.63;;;12.40;99.90;;;;;;5065870;28;20207;-53
2022/05/06 00:41:54;;;;;;;39.70;22.07;;;12.10;99.90;;;;;;5069562;28;20207;-54
2022/05/06 00:44:22;;;;;;;41.20;23.13;;;12.00;99.90;;;;;;5064847;28;20245;-53
2022/05/06 00:46:52;;;;;;;47.23;25.00;;;12.00;99.90;;;;;;5069397;28;20217;-53
2022/05/06 00:49:21;;;;;;;47.10;25.53;;;11.80;99.90;;;;;;5066535;28;20282;-53
2022/05/06 00:51:51;;;;;;;49.97;25.83;;;11.80;99.90;;;;;;5068402;28;20868;-54
2022/05/06 00:54:21;;;;;;;48.63;24.70;;;11.70;99.90;;;;;;5067737;28;20232;-54
2022/05/06 00:56:49;;;;;;;47.37;25.73;;;11.70;99.90;;;;;;5052277;28;20261;-54
2022/05/06 00:59:16;;;;;;;48.80;25.43;;;11.70;99.90;;;;;;5061357;28;20216;-53
2022/05/06 01:01:43;;;;;;;42.47;24.53;;;11.80;99.90;;;;;;5061378;28;20270;-54
2022/05/06 01:04:11;;;;;;;44.10;25.47;;;11.70;99.90;;;;;;5065643;28;20299;-54
2022/05/06 01:06:39;;;;;;;42.77;23.83;;;11.60;99.90;;;;;;5069714;28;20222;-54
2022/05/06 01:09:06;;;;;;;43.73;24.03;;;11.70;99.90;;;;;;5048181;28;20205;-53
2022/05/06 01:11:34;;;;;;;42.13;23.37;;;11.70;99.90;;;;;;5059020;28;20699;-54
2022/05/06 01:14:02;;;;;;;50.70;25.13;;;11.70;99.90;;;;;;5066203;28;20249;-53
2022/05/06 01:16:38;;;;;;;45.67;24.43;;;11.70;99.90;;;;;;5064231;28;20214;-54
2022/05/06 01:19:05;;;;;;;44.43;24.03;;;11.60;99.90;;;;;;5060718;28;20207;-52
2022/05/06 01:21:42;;;;;;;42.33;23.07;;;11.70;99.90;;;;;;5063051;28;20308;-54
2022/05/06 01:24:09;;;;;;;43.13;24.83;;;11.80;99.90;;;;;;5067983;28;20204;-53
2022/05/06 01:27:08;;;;;;;40.70;23.17;;;11.90;99.90;;;;;;5069253;28;20306;-54
2022/05/06 01:29:37;;;;;;;42.87;23.27;;;11.70;99.90;;;;;;5067652;28;20307;-53
2022/05/06 01:32:05;;;;;;;42.40;23.10;;;11.70;99.90;;;;;;5066251;28;20203;-54
2022/05/06 01:34:33;;;;;;;43.17;22.77;;;11.80;99.90;;;;;;5066284;28;20203;-55
2022/05/06 01:37:03;;;;;;;41.90;23.03;;;11.70;99.90;;;;;;5067115;28;20289;-54
2022/05/06 01:39:34;;;;;;;38.43;22.17;;;11.80;99.90;;;;;;5068762;28;20237;-58
2022/05/06 01:42:06;;;;;;;42.60;22.10;;;11.80;99.90;;;;;;5061129;28;20238;-55
2022/05/06 01:44:41;;;;;;;42.03;21.83;;;11.70;99.90;;;;;;5065095;28;20277;-54
2022/05/06 01:47:19;;;;;;;41.60;20.90;;;11.60;99.90;;;;;;5065073;28;20311;-55
2022/05/06 01:49:49;;;;;;;42.33;21.93;;;11.50;99.90;;;;;;5071152;28;20286;-55
2022/05/06 01:52:17;;;;;;;44.57;22.50;;;11.50;99.90;;;;;;5071323;28;20630;-54
2022/05/06 01:54:44;;;;;;;40.07;22.33;;;11.70;99.90;;;;;;5071984;28;20233;-54
2022/05/06 01:57:11;;;;;;;41.50;22.47;;;11.80;99.90;;;;;;5072072;28;20619;-54
2022/05/06 01:59:38;;;;;;;44.87;22.67;;;11.80;99.90;;;;;;5072348;28;20204;-55
2022/05/06 02:02:05;;;;;;;39.00;20.93;;;11.80;99.90;;;;;;5071517;28;20231;-54
2022/05/06 02:07:18;;;;;;;40.10;20.63;;;11.40;99.90;;;;;;5063676;28;20330;-53
2022/05/06 02:09:44;;;;;;;41.77;21.13;;;11.50;99.90;;;;;;5081965;28;20252;-54
2022/05/06 02:12:11;;;;;;;35.80;20.57;;;11.40;99.90;;;;;;5070752;28;20241;-55
2022/05/06 02:14:38;;;;;;;40.03;21.03;;;11.40;99.90;;;;;;5066579;28;20236;-54
2022/05/06 02:17:05;;;;;;;38.30;21.97;;;11.60;99.90;;;;;;5064146;28;20686;-54
2022/05/06 02:19:32;;;;;;;43.23;22.40;;;11.60;99.90;;;;;;5068565;28;20210;-54
2022/05/06 02:21:59;;;;;;;40.60;20.57;;;11.70;99.90;;;;;;5064645;28;20254;-54
2022/05/06 02:24:26;;;;;;;40.60;20.10;;;11.70;99.90;;;;;;5072301;28;20249;-54
2022/05/06 02:26:53;;;;;;;44.10;20.77;;;11.70;99.90;;;;;;5072616;28;20602;-53
2022/05/06 02:29:19;;;;;;;35.57;20.23;;;11.30;99.90;;;;;;5067630;28;20209;-54
2022/05/06 02:34:31;;;;;;;40.60;20.43;;;11.30;99.90;;;;;;5069777;28;20251;-54
2022/05/06 02:36:58;;;;;;;43.23;20.87;;;11.50;99.90;;;;;;5072623;28;20267;-54
2022/05/06 02:39:26;;;;;;;42.37;22.10;;;11.50;99.90;;;;;;5068577;28;20294;-54
2022/05/06 02:41:53;;;;;;;42.17;20.77;;;11.50;99.90;;;;;;5066037;28;20244;-54
2022/05/06 02:44:19;;;;;;;39.47;20.07;;;11.60;99.90;;;;;;5070799;28;20380;-54
2022/05/06 02:46:46;;;;;;;38.63;19.93;;;11.50;99.90;;;;;;5067186;28;20329;-54
2022/05/06 02:49:13;;;;;;;37.23;20.17;;;11.40;99.90;;;;;;5069642;28;20238;-54
2022/05/06 02:51:40;;;;;;;41.93;20.20;;;11.50;99.90;;;;;;5050308;28;20292;-53
2022/05/06 02:54:07;;;;;;;35.90;19.43;;;11.50;99.90;;;;;;5069588;28;20909;-54
2022/05/06 02:56:34;;;;;;;36.63;19.93;;;11.70;99.90;;;;;;5066214;28;20210;-54
2022/05/06 02:59:00;;;;;;;37.37;19.07;;;11.50;99.90;;;;;;5070451;28;20246;-54
2022/05/06 03:01:28;;;;;;;33.90;18.30;;;11.40;99.90;;;;;;5068160;28;20294;-54
2022/05/06 03:03:55;;;;;;;36.40;19.47;;;11.60;99.90;;;;;;5070263;28;20217;-56
2022/05/06 03:06:22;;;;;;;35.27;17.40;;;11.50;99.90;;;;;;5070797;28;20620;-54
2022/05/06 03:08:49;;;;;;;34.17;17.67;;;11.50;99.90;;;;;;5057994;28;20202;-57
2022/05/06 03:11:15;;;;;;;32.67;17.47;;;11.40;99.90;;;;;;5071666;28;20206;-55
2022/05/06 03:13:42;;;;;;;34.43;18.23;;;11.30;99.90;;;;;;5070848;28;20241;-54
2022/05/06 03:16:09;;;;;;;33.57;17.63;;;11.20;99.90;;;;;;5067218;28;20239;-55
2022/05/06 03:18:36;;;;;;;37.37;18.27;;;11.30;99.90;;;;;;5068356;28;20218;-55
2022/05/06 03:21:03;;;;;;;38.00;19.10;;;11.00;99.90;;;;;;5045019;28;20229;-55
2022/05/06 03:23:30;;;;;;;33.67;16.97;;;11.20;99.90;;;;;;5069366;28;20249;-55
2022/05/06 03:25:57;;;;;;;35.33;16.97;;;11.20;99.90;;;;;;5071525;28;20294;-54
2022/05/06 03:28:23;;;;;;;33.80;15.63;;;11.00;99.90;;;;;;5065859;28;20721;-55
2022/05/06 03:30:52;;;;;;;30.60;15.10;;;11.00;99.90;;;;;;5068725;28;20226;-55
2022/05/06 03:33:19;;;;;;;28.80;15.60;;;11.00;99.90;;;;;;5067231;28;20231;-54
2022/05/06 03:35:46;;;;;;;32.37;14.57;;;11.10;99.90;;;;;;5070331;28;20241;-56
2022/05/06 03:38:13;;;;;;;28.33;15.50;;;11.10;99.90;;;;;;5069219;28;20196;-55
2022/05/06 03:40:40;;;;;;;24.57;14.17;;;11.30;99.90;;;;;;5053340;28;20302;-55
2022/05/06 03:43:07;;;;;;;29.10;15.67;;;11.30;99.90;;;;;;5070727;28;20680;-55
2022/05/06 03:45:36;;;;;;;26.57;15.07;;;11.30;99.90;;;;;;5069329;28;20238;-56
2022/05/06 03:48:04;;;;;;;25.80;13.67;;;11.30;99.90;;;;;;5067839;28;20222;-57
2022/05/06 03:53:24;;;;;;;21.13;13.43;;;10.90;99.90;;;;;;5044187;28;20289;-56
2022/05/06 03:55:50;;;;;;;23.37;12.90;;;11.20;99.90;;;;;;5069743;28;20643;-54
2022/05/06 03:58:18;;;;;;;20.20;12.30;;;11.20;99.90;;;;;;5070369;28;20239;-55
2022/05/06 04:00:45;;;;;;;26.37;13.40;;;11.10;99.90;;;;;;5069034;28;20264;-55
2022/05/06 04:03:11;;;;;;;21.47;12.33;;;11.10;99.90;;;;;;5069389;28;20669;-56
2022/05/06 04:05:38;;;;;;;21.17;11.57;;;10.90;99.90;;;;;;5068063;28;20195;-56
2022/05/06 04:08:05;;;;;;;21.83;12.17;;;10.60;99.90;;;;;;5062973;28;20325;-55
2022/05/06 04:10:32;;;;;;;20.67;11.93;;;10.70;99.90;;;;;;5068657;28;20237;-55
2022/05/06 04:12:58;;;;;;;22.37;12.30;;;10.60;99.90;;;;;;5052365;28;20647;-54
2022/05/06 04:15:25;;;;;;;22.50;10.97;;;10.80;99.90;;;;;;5068759;28;20260;-54
2022/05/06 04:17:52;;;;;;;20.97;11.30;;;10.80;99.90;;;;;;5068812;28;20263;-55
2022/05/06 04:25:50;;;;;;;20.03;12.00;;;10.80;99.90;;;;;;5069504;28;20205;-56
2022/05/06 04:28:17;;;;;;;21.30;11.53;;;10.60;99.90;;;;;;5069419;28;20669;-56
2022/05/06 04:30:44;;;;;;;23.67;11.67;;;10.60;99.90;;;;;;5068368;28;20230;-57
2022/05/06 04:33:11;;;;;;;22.10;11.33;;;10.70;99.90;;;;;;5067055;28;20298;-55
2022/05/06 04:35:38;;;;;;;20.53;11.80;;;10.70;99.90;;;;;;5069208;28;20649;-55
2022/05/06 04:38:05;;;;;;;24.83;11.30;;;10.80;99.90;;;;;;5069513;28;20656;-55
2022/05/06 04:40:33;;;;;;;16.13;10.10;;;10.90;99.90;;;;;;5068698;28;20241;-54
2022/05/06 04:43:03;;;;;;;16.93;10.00;;;10.60;99.90;;;;;;5064756;28;20250;-54
2022/05/06 04:45:30;;;;;;;19.90;10.70;;;10.60;99.90;;;;;;5068557;28;20245;-55
2022/05/06 04:47:57;;;;;;;17.60;9.53;;;10.70;99.90;;;;;;5068738;28;20300;-54
2022/05/06 04:50:24;;;;;;;13.43;9.30;;;10.80;99.90;;;;;;5066348;28;20259;-55
2022/05/06 04:52:52;;;;;;;15.43;9.57;;;10.70;99.90;;;;;;5067971;28;20201;-55
2022/05/06 04:55:19;;;;;;;15.03;9.00;;;10.50;99.90;;;;;;5068092;28;20242;-55
2022/05/06 04:57:46;;;;;;;18.13;9.37;;;10.70;99.90;;;;;;5069235;28;20206;-53
2022/05/06 05:00:13;;;;;;;13.40;9.00;;;10.70;99.90;;;;;;5066742;28;20246;-54
2022/05/06 05:02:39;;;;;;;16.43;8.97;;;10.80;99.90;;;;;;5034577;28;20267;-58
2022/05/06 05:05:07;;;;;;;15.10;8.50;;;10.80;99.90;;;;;;5066364;28;20306;-55
2022/05/06 05:07:34;;;;;;;19.03;9.90;;;10.70;99.90;;;;;;5049042;28;20737;-55
2022/05/06 05:10:01;;;;;;;15.53;9.67;;;10.70;99.90;;;;;;5059279;28;20242;-55
2022/05/06 05:12:28;;;;;;;24.00;9.93;;;10.40;99.90;;;;;;5068274;28;20483;-56
2022/05/06 05:14:55;;;;;;;16.80;9.90;;;10.60;99.90;;;;;;5068152;28;20234;-54
2022/05/06 05:17:22;;;;;;;21.70;9.43;;;10.60;99.90;;;;;;5048603;28;20297;-56
2022/05/06 05:19:49;;;;;;;17.13;9.33;;;10.50;99.90;;;;;;5072635;28;20201;-57
2022/05/06 05:22:18;;;;;;;20.67;9.67;;;10.50;99.90;;;;;;5069741;28;20270;-55
2022/05/06 05:24:46;;;;;;;19.93;9.93;;;10.60;99.90;;;;;;5075413;28;20260;-54
2022/05/06 05:27:15;;;;;;;16.93;10.23;;;10.50;99.90;;;;;;5073176;28;20317;-56
2022/05/06 05:29:42;;;;;;;15.53;9.77;;;10.60;99.90;;;;;;5068171;28;20227;-55
2022/05/06 05:32:10;;;;;;;15.60;9.77;;;10.80;99.90;;;;;;5073323;28;20614;-54
2022/05/06 05:34:37;;;;;;;21.13;10.20;;;10.90;99.90;;;;;;5071983;28;20555;-55
2022/05/06 05:37:12;;;;;;;16.43;10.33;;;10.80;99.90;;;;;;5067545;28;20211;-56
2022/05/06 05:39:38;;;;;;;17.47;10.60;;;10.80;99.90;;;;;;5073235;28;20642;-57
2022/05/06 05:42:06;;;;;;;18.80;10.67;;;11.00;99.90;;;;;;5073641;28;20326;-55
2022/05/06 05:50:06;;;;;;;23.87;12.70;;;10.70;99.90;;;;;;5043097;28;20628;-55
2022/05/06 05:52:33;;;;;;;20.60;12.97;;;10.60;99.90;;;;;;5053894;28;20287;-56
2022/05/06 05:55:00;;;;;;;23.17;13.97;;;10.70;99.90;;;;;;5040878;28;20673;-55
2022/05/06 05:57:27;;;;;;;27.63;13.07;;;10.90;99.90;;;;;;5045303;28;20200;-56
2022/05/06 05:59:54;;;;;;;30.60;13.20;;;10.70;99.90;;;;;;5052573;28;20290;-55
2022/05/06 06:02:21;;;;;;;29.27;13.33;;;10.70;99.90;;;;;;5028502;28;20575;-55
2022/05/06 06:04:48;;;;;;;22.07;13.80;;;10.70;99.90;;;;;;5021704;28;20207;-55
2022/05/06 06:07:17;;;;;;;24.10;12.23;;;10.70;99.90;;;;;;5046788;28;20274;-55
2022/05/06 06:09:43;;;;;;;24.23;13.47;;;10.90;99.90;;;;;;5041472;28;20693;-55
2022/05/06 06:12:10;;;;;;;26.10;13.63;;;11.10;99.90;;;;;;5053846;28;20233;-55
2022/05/06 06:14:37;;;;;;;26.87;13.60;;;10.90;99.90;;;;;;5052682;28;20594;-55
2022/05/06 06:17:04;;;;;;;23.60;12.80;;;11.10;99.90;;;;;;5052742;28;20231;-54
2022/05/06 06:19:32;;;;;;;22.00;13.17;;;11.10;99.90;;;;;;5042653;28;20239;-54
2022/05/06 06:21:59;;;;;;;19.10;11.47;;;11.20;99.90;;;;;;5048239;28;20231;-55
2022/05/06 06:24:27;;;;;;;23.47;13.07;;;11.30;99.90;;;;;;5054353;28;20301;-56
2022/05/06 06:26:54;;;;;;;23.77;12.63;;;11.20;99.90;;;;;;5049583;28;20683;-55
2022/05/06 06:29:21;;;;;;;22.20;12.53;;;10.90;99.90;;;;;;5047779;28;20290;-55
2022/05/06 06:31:47;;;;;;;23.73;11.80;;;10.90;99.90;;;;;;5043221;28;20202;-57
2022/05/06 06:34:14;;;;;;;23.30;13.33;;;10.90;99.90;;;;;;5049984;28;20564;-56
2022/05/06 06:36:41;;;;;;;31.40;12.93;;;10.90;99.90;;;;;;5045287;28;20523;-58
2022/05/06 06:39:08;;;;;;;26.03;14.27;;;10.80;99.90;;;;;;5032216;28;20686;-54
2022/05/06 06:41:35;;;;;;;25.07;13.67;;;10.80;99.90;;;;;;5044649;28;20257;-54
2022/05/06 06:44:02;;;;;;;27.13;14.43;;;10.90;99.90;;;;;;5046615;28;20207;-54
2022/05/06 06:46:31;;;;;;;32.90;15.53;;;11.00;99.90;;;;;;5058324;28;20892;-56
2022/05/06 06:48:58;;;;;;;28.97;14.83;;;10.80;99.90;;;;;;5049946;28;20223;-55
2022/05/06 06:51:25;;;;;;;28.80;15.07;;;11.00;99.90;;;;;;5055533;28;20233;-62
2022/05/06 06:53:55;;;;;;;31.97;16.57;;;11.10;99.90;;;;;;5069401;28;20234;-55
2022/05/06 06:56:22;;;;;;;28.67;15.50;;;11.20;99.90;;;;;;5051045;28;20210;-55
2022/05/06 06:58:49;;;;;;;27.03;15.40;;;11.40;99.90;;;;;;5051220;28;20680;-55
2022/05/06 07:01:16;;;;;;;32.30;15.50;;;11.50;99.90;;;;;;5067593;28;20568;-54
2022/05/06 07:03:43;;;;;;;28.80;15.07;;;11.40;99.90;;;;;;5038014;28;20439;-55
2022/05/06 07:11:53;;;;;;;28.73;15.37;;;11.70;99.90;;;;;;5064065;28;20256;-55
2022/05/06 07:14:21;;;;;;;27.47;14.37;;;11.60;99.90;;;;;;5048926;28;20672;-55
2022/05/06 07:16:49;;;;;;;26.20;14.00;;;11.60;99.90;;;;;;5064072;28;20207;-55
2022/05/06 07:19:16;;;;;;;28.13;14.57;;;11.50;99.90;;;;;;5048353;28;20230;-54
2022/05/06 07:21:44;;;;;;;25.63;14.70;;;11.20;99.90;;;;;;5044965;28;20319;-55
2022/05/06 07:24:11;;;;;;;27.23;13.70;;;11.20;99.90;;;;;;5049621;28;20698;-55
2022/05/06 07:26:37;;;;;;;25.47;13.50;;;11.20;99.90;;;;;;5050672;28;20227;-54
2022/05/06 07:29:04;;;;;;;22.63;13.00;;;11.60;99.90;;;;;;5050399;28;20254;-55
2022/05/06 07:31:31;;;;;;;23.77;13.73;;;11.80;99.90;;;;;;5031545;28;20329;-55
2022/05/06 07:33:58;;;;;;;23.03;12.93;;;11.80;99.90;;;;;;5048766;28;20211;-54
2022/05/06 07:36:26;;;;;;;19.33;11.97;;;11.90;99.90;;;;;;5050480;28;20243;-54
2022/05/06 07:38:52;;;;;;;19.40;10.97;;;11.90;99.90;;;;;;5049489;28;20358;-54
2022/05/06 07:41:19;;;;;;;18.60;11.77;;;12.20;99.90;;;;;;5049429;28;20635;-53
2022/05/06 07:43:46;;;;;;;19.13;11.30;;;12.30;99.90;;;;;;5050059;28;20330;-53
2022/05/06 07:46:13;;;;;;;21.30;11.30;;;12.30;99.90;;;;;;5064124;28;20337;-54
2022/05/06 07:48:40;;;;;;;27.77;12.27;;;12.00;99.90;;;;;;5067222;28;20579;-55
2022/05/06 07:51:07;;;;;;;19.73;11.07;;;12.10;99.90;;;;;;5068908;28;20241;-53
2022/05/06 07:53:34;;;;;;;22.50;12.27;;;11.90;99.90;;;;;;5070679;28;20669;-54
2022/05/06 07:56:02;;;;;;;24.13;12.97;;;11.90;99.90;;;;;;5069888;28;20588;-53
2022/05/06 07:58:30;;;;;;;20.33;11.80;;;12.10;99.90;;;;;;5069371;28;20722;-54
2022/05/06 08:00:56;;;;;;;24.80;13.20;;;12.30;99.90;;;;;;5070163;28;20321;-54
2022/05/06 08:06:09;;;;;;;23.80;13.73;;;12.50;99.90;;;;;;5065235;28;20237;-55
2022/05/06 08:08:35;;;;;;;23.90;13.13;;;12.50;99.90;;;;;;5061251;28;20307;-54
2022/05/06 08:11:02;;;;;;;22.80;13.20;;;12.50;99.90;;;;;;5068296;28;20240;-54
2022/05/06 08:13:29;;;;;;;26.57;12.60;;;12.60;99.90;;;;;;5065121;28;20204;-55
2022/05/06 08:15:57;;;;;;;23.53;12.33;;;12.50;99.90;;;;;;5061064;28;20720;-55
2022/05/06 08:18:25;;;;;;;23.27;13.20;;;12.50;99.90;;;;;;5061258;28;20204;-54
2022/05/06 08:20:52;;;;;;;20.37;11.43;;;12.70;99.90;;;;;;5062058;28;20216;-55
2022/05/06 08:23:23;;;;;;;20.30;11.60;;;13.20;99.90;;;;;;5065157;28;20239;-55
2022/05/06 08:25:53;;;;;;;23.87;12.23;;;13.30;99.90;;;;;;5061410;28;20237;-54
2022/05/06 08:28:21;;;;;;;22.70;11.57;;;13.30;99.90;;;;;;5062117;28;20721;-54
2022/05/06 08:30:49;;;;;;;23.37;13.30;;;13.30;99.90;;;;;;5065534;28;20246;-54
2022/05/06 08:33:17;;;;;;;21.97;12.73;;;13.40;99.90;;;;;;5063176;28;20203;-54
2022/05/06 08:35:44;;;;;;;23.60;13.37;;;13.20;99.90;;;;;;5064896;28;20254;-54
2022/05/06 08:38:12;;;;;;;21.33;13.13;;;13.20;99.90;;;;;;5064582;28;20289;-54
2022/05/06 08:40:39;;;;;;;25.07;13.27;;;13.30;99.90;;;;;;5065535;28;20203;-54
2022/05/06 08:43:06;;;;;;;25.83;13.03;;;13.10;99.90;;;;;;5065711;28;20274;-55
2022/05/06 08:51:34;;;;;;;26.57;13.97;;;13.40;99.90;;;;;;5002791;28;20287;-55
2022/05/06 08:54:01;;;;;;;25.27;13.77;;;13.40;99.90;;;;;;5057403;28;20235;-54
2022/05/06 08:56:29;;;;;;;27.93;14.57;;;13.50;99.90;;;;;;5065403;28;20204;-53
2022/05/06 08:58:59;;;;;;;25.73;15.20;;;13.30;99.90;;;;;;5062418;28;20235;-54
2022/05/06 09:01:26;;;;;;;28.40;14.73;;;13.20;99.90;;;;;;5064475;28;20292;-54
2022/05/06 09:03:55;;;;;;;26.03;14.07;;;13.40;99.90;;;;;;5063024;28;20228;-54
2022/05/06 09:06:31;;;;;;;26.57;14.20;;;13.20;99.90;;;;;;5069236;28;20377;-54
2022/05/06 09:08:59;;;;;;;28.77;13.97;;;13.30;99.90;;;;;;5061631;28;20211;-54
2022/05/06 09:16:39;;;;;;;28.10;14.97;;;13.40;99.90;;;;;;5063970;28;20286;-54
2022/05/06 09:17:24;;;;;;;30.17;14.93;;;13.60;99.90;;;;;;5064958;28;20232;-56
2022/05/06 09:19:52;;;;;;;25.83;13.93;;;14.00;99.90;;;;;;5061919;28;20197;-55
2022/05/06 09:22:18;;;;;;;24.70;14.60;;;14.30;99.90;;;;;;5062331;28;20646;-54
2022/05/06 09:24:50;;;;;;;23.77;12.93;;;14.50;99.90;;;;;;5063098;28;20291;-55
2022/05/06 09:27:19;;;;;;;27.73;12.93;;;14.90;99.90;;;;;;5059337;28;20202;-54
2022/05/06 09:29:50;;;;;;;22.20;12.50;;;14.60;99.90;;;;;;5064945;28;20664;-53
2022/05/06 09:32:21;;;;;;;23.07;12.60;;;15.30;99.90;;;;;;5040251;28;20203;-54
2022/05/06 09:34:58;;;;;;;22.43;12.57;;;15.40;99.90;;;;;;5065037;28;20209;-54
2022/05/06 09:37:34;;;;;;;25.40;12.73;;;15.90;99.90;;;;;;5059059;28;20197;-54
2022/05/06 09:40:11;;;;;;;23.40;12.47;;;15.90;99.90;;;;;;5065424;28;20731;-55
2022/05/06 09:42:55;;;;;;;22.40;12.90;;;15.70;99.90;;;;;;5063408;28;20257;-57
2022/05/06 09:45:34;;;;;;;25.80;13.73;;;15.60;99.90;;;;;;5065545;28;20320;-53
2022/05/06 09:48:11;;;;;;;24.93;12.93;;;16.00;99.90;;;;;;5046436;28;20219;-53
2022/05/06 09:50:42;;;;;;;22.30;12.17;;;16.40;99.90;;;;;;5064388;28;20206;-53
2022/05/06 09:53:17;;;;;;;20.70;10.60;;;16.00;99.90;;;;;;5063464;28;20198;-55
2022/05/06 09:55:46;;;;;;;18.90;10.73;;;16.20;99.90;;;;;;5062105;28;20192;-54
2022/05/06 09:58:15;;;;;;;17.10;9.93;;;16.50;99.90;;;;;;5064670;28;20197;-55
2022/05/06 10:00:42;;;;;;;20.87;11.27;;;17.00;99.90;;;;;;5063273;28;20284;-54
2022/05/06 10:03:10;;;;;;;17.87;10.87;;;16.80;99.90;;;;;;5065962;28;20301;-55
2022/05/06 10:05:38;;;;;;;19.60;11.03;;;16.40;99.90;;;;;;5067882;28;20651;-54
2022/05/06 10:08:14;;;;;;;18.50;10.57;;;16.50;99.90;;;;;;5068936;28;20665;-54
2022/05/06 10:10:47;;;;;;;18.07;10.90;;;17.00;99.90;;;;;;5067464;28;20256;-54
2022/05/06 10:13:25;;;;;;;17.77;10.90;;;17.20;99.90;;;;;;5070188;28;20198;-55
2022/05/06 10:15:53;;;;;;;19.80;10.93;;;17.00;99.90;;;;;;5067270;28;20800;-54
2022/05/06 10:18:40;;;;;;;21.40;10.87;;;17.20;99.90;;;;;;5064238;28;20208;-54
2022/05/06 10:21:08;;;;;;;19.73;11.20;;;17.40;99.90;;;;;;5064063;28;20290;-53
2022/05/06 10:23:45;;;;;;;18.73;11.07;;;16.90;99.90;;;;;;5067308;28;20688;-54
2022/05/06 10:26:34;;;;;;;20.57;12.00;;;17.00;99.90;;;;;;5070537;28;20293;-55
2022/05/06 10:34:54;;;;;;;18.50;11.07;;;17.90;99.90;;;;;;5063002;28;20201;-54
2022/05/06 10:37:22;;;;;;;16.70;9.93;;;17.90;99.90;;;;;;5065925;28;20199;-54
2022/05/06 10:42:39;;;;;;;15.80;9.67;;;18.20;99.90;;;;;;5071519;28;20272;-54
2022/05/06 10:45:22;;;;;;;19.07;9.67;;;18.20;99.90;;;;;;5064069;28;20714;-54
2022/05/06 10:47:50;;;;;;;15.17;9.53;;;18.40;99.90;;;;;;5047525;28;20286;-53
2022/05/06 10:50:19;;;;;;;14.77;9.20;;;18.50;99.90;;;;;;5069520;28;20199;-54
2022/05/06 10:52:47;;;;;;;17.90;10.80;;;18.50;99.90;;;;;;5065502;28;20199;-52
2022/05/06 10:55:15;;;;;;;17.20;9.93;;;18.60;99.90;;;;;;5067916;28;20197;-54
2022/05/06 10:57:49;;;;;;;16.83;10.10;;;18.50;99.90;;;;;;5064674;28;20214;-54
2022/05/06 11:00:17;;;;;;;15.30;7.87;;;18.50;99.90;;;;;;5065932;28;20647;-54
2022/05/06 11:02:44;;;;;;;14.00;8.03;;;18.80;99.90;;;;;;5066306;28;20281;-54
2022/05/06 11:05:14;;;;;;;14.07;8.13;;;19.00;99.90;;;;;;5063653;28;20630;-54
2022/05/06 11:07:43;;;;;;;16.23;8.83;;;18.90;99.90;;;;;;5068634;28;20224;-55
2022/05/06 11:10:12;;;;;;;11.17;7.37;;;19.10;99.90;;;;;;5065153;28;20247;-55
2022/05/06 11:12:43;;;;;;;11.43;7.40;;;19.40;99.90;;;;;;5047900;28;20255;-54
2022/05/06 11:15:13;;;;;;;15.50;8.33;;;19.50;99.90;;;;;;5065052;28;20192;-55
2022/05/06 11:17:40;;;;;;;12.93;8.27;;;19.80;99.90;;;;;;5068276;28;20542;-55
2022/05/06 11:20:35;;;;;;;14.00;8.67;;;19.90;99.90;;;;;;5063421;28;20252;-55
2022/05/06 11:23:09;;;;;;;18.10;8.80;;;20.40;99.90;;;;;;5059460;28;20227;-54
2022/05/06 11:25:39;;;;;;;14.37;8.30;;;20.70;99.90;;;;;;5043106;28;20202;-54
2022/05/06 11:28:20;;;;;;;17.30;8.87;;;20.60;99.90;;;;;;5062839;28;20608;-54
2022/05/06 11:30:49;;;;;;;14.90;8.70;;;20.70;99.90;;;;;;5061801;28;20663;-54
2022/05/06 11:33:27;;;;;;;14.77;9.03;;;20.40;99.90;;;;;;5063242;28;20208;-54
2022/05/06 11:36:03;;;;;;;14.77;9.17;;;20.80;99.90;;;;;;5051007;28;20651;-54
2022/05/06 11:38:42;;;;;;;17.00;8.17;;;20.90;99.90;;;;;;5056146;28;20207;-54
2022/05/06 11:41:14;;;;;;;16.83;9.90;;;21.50;99.90;;;;;;5064516;28;20222;-55
2022/05/06 11:43:42;;;;;;;16.60;10.10;;;21.10;99.90;;;;;;5062292;28;20196;-55
2022/05/06 11:49:07;;;;;;;18.10;8.33;;;21.60;99.90;;;;;;5067454;28;20258;-55
2022/05/06 11:51:42;;;;;;;15.60;9.93;;;21.50;99.90;;;;;;5061112;28;20531;-54
2022/05/06 11:54:10;;;;;;;22.37;10.83;;;22.00;99.90;;;;;;5063662;28;20199;-54
2022/05/06 11:56:38;;;;;;;15.73;9.73;;;21.70;99.90;;;;;;5061662;28;20245;-56
2022/05/06 11:59:06;;;;;;;21.57;10.90;;;22.00;99.90;;;;;;5061442;28;20619;-56
2022/05/06 12:01:35;;;;;;;18.67;10.97;;;22.10;99.90;;;;;;5063644;28;20239;-56
2022/05/06 12:04:04;;;;;;;20.00;10.47;;;22.10;99.90;;;;;;5067880;28;20621;-55
2022/05/06 12:06:38;;;;;;;16.10;9.23;;;22.10;99.90;;;;;;5070562;28;20306;-55
2022/05/06 12:09:10;;;;;;;16.33;9.67;;;22.20;99.90;;;;;;5064269;28;20214;-54
2022/05/06 12:11:38;;;;;;;19.20;10.20;;;21.50;99.90;;;;;;5068806;28;20677;-55
2022/05/06 12:14:10;;;;;;;17.40;10.40;;;21.40;99.90;;;;;;5067274;28;20227;-54
2022/05/06 12:16:55;;;;;;;21.47;11.33;;;21.30;99.90;;;;;;5050725;28;20229;-54
2022/05/06 12:19:55;;;;;;;23.67;11.13;;;21.00;99.90;;;;;;5049070;28;20217;-54
2022/05/06 12:22:24;;;;;;;19.67;10.07;;;21.70;99.90;;;;;;5022681;28;20252;-56
2022/05/06 12:24:55;;;;;;;15.93;9.43;;;22.60;99.90;;;;;;5069607;28;20199;-55
2022/05/06 12:27:31;;;;;;;17.30;9.23;;;22.80;99.90;;;;;;5045157;28;20655;-54
2022/05/06 12:29:59;;;;;;;16.67;10.07;;;22.50;99.90;;;;;;5065006;28;20225;-54
2022/05/06 12:32:29;;;;;;;12.87;8.47;;;22.00;99.90;;;;;;5069270;28;20238;-55
2022/05/06 12:35:07;;;;;;;13.83;8.90;;;22.30;99.90;;;;;;5066695;28;20265;-54
2022/05/06 12:37:53;;;;;;;14.87;9.50;;;22.40;99.90;;;;;;5069768;28;20202;-53
2022/05/06 12:40:20;;;;;;;13.67;8.70;;;22.30;99.90;;;;;;5041677;28;20200;-54
2022/05/06 12:43:10;;;;;;;15.53;8.07;;;22.40;99.90;;;;;;5051355;28;20213;-54
2022/05/06 12:45:38;;;;;;;11.53;8.00;;;22.30;99.90;;;;;;5069197;28;20581;-54
2022/05/06 12:50:50;;;;;;;12.70;8.50;;;23.00;99.90;;;;;;5056285;28;20315;-53
2022/05/06 12:53:18;;;;;;;11.63;8.27;;;22.80;99.90;;;;;;5056769;28;20552;-54
2022/05/06 12:55:45;;;;;;;13.60;9.23;;;22.90;99.90;;;;;;5061212;28;20260;-54
2022/05/06 12:58:12;;;;;;;12.53;8.80;;;22.60;99.90;;;;;;5060502;28;20623;-54
2022/05/06 13:00:39;;;;;;;12.60;9.27;;;22.50;99.90;;;;;;5055280;28;20317;-54
2022/05/06 13:03:06;;;;;;;12.93;9.87;;;22.10;99.90;;;;;;5055049;28;20191;-54
2022/05/06 13:05:34;;;;;;;11.83;8.70;;;22.40;99.90;;;;;;5056985;28;20201;-55
2022/05/06 13:08:06;;;;;;;11.73;8.77;;;22.30;99.90;;;;;;5056635;28;20743;-55
2022/05/06 13:10:33;;;;;;;10.50;8.10;;;23.10;99.90;;;;;;5057057;28;20280;-54
2022/05/06 13:13:02;;;;;;;11.93;9.00;;;23.10;99.90;;;;;;5058387;28;20813;-54
2022/05/06 13:15:30;;;;;;;13.67;8.87;;;23.10;99.90;;;;;;5056196;28;20208;-55
2022/05/06 13:17:56;;;;;;;12.50;9.10;;;22.80;99.90;;;;;;5057790;28;20206;-55
2022/05/06 13:20:24;;;;;;;10.00;7.97;;;22.90;99.90;;;;;;5056420;28;20225;-55
2022/05/06 13:22:50;;;;;;;11.83;8.70;;;23.00;99.90;;;;;;5056096;28;20258;-57
2022/05/06 13:25:17;;;;;;;15.33;10.70;;;23.30;99.90;;;;;;5057572;28;20230;-55
2022/05/06 13:27:45;;;;;;;14.93;10.80;;;22.80;99.90;;;;;;5059068;28;20207;-53